sensor_id;sensor_type;location;lat;lon;timestamp;pressure;altitude;pressure_sealevel;temperature
74536;BMP180;63013;51.104;-115.370;2023-06-26T00:01:36;87317.00;;;20.90
74536;BMP180;63013;51.104;-115.370;2023-06-26T00:04:10;87313.60;;;20.92
74536;BMP180;63013;51.104;-115.370;2023-06-26T00:06:41;87311.60;;;20.98
74536;BMP180;63013;51.104;-115.370;2023-06-26T00:09:08;87311.60;;;21.00
74536;BMP180;63013;51.104;-115.370;2023-06-26T00:11:35;87308.80;;;21.00
74536;BMP180;63013;51.104;-115.370;2023-06-26T00:14:02;87311.40;;;21.00
74536;BMP180;63013;51.104;-115.370;2023-06-26T00:16:29;87305.20;;;21.00
74536;BMP180;63013;51.104;-115.370;2023-06-26T00:18:57;87303.60;;;21.00
74536;BMP180;63013;51.104;-115.370;2023-06-26T00:21:25;87303.40;;;21.00
74536;BMP180;63013;51.104;-115.370;2023-06-26T00:23:53;87302.00;;;21.00
74536;BMP180;63013;51.104;-115.370;2023-06-26T00:26:21;87302.20;;;21.00
74536;BMP180;63013;51.104;-115.370;2023-06-26T00:28:48;87302.00;;;21.02
74536;BMP180;63013;51.104;-115.370;2023-06-26T00:31:15;87301.60;;;21.08
74536;BMP180;63013;51.104;-115.370;2023-06-26T00:33:42;87300.80;;;21.10
74536;BMP180;63013;51.104;-115.370;2023-06-26T00:36:09;87298.00;;;21.10
74536;BMP180;63013;51.104;-115.370;2023-06-26T00:38:36;87295.60;;;21.10
74536;BMP180;63013;51.104;-115.370;2023-06-26T00:41:03;87292.60;;;21.10
74536;BMP180;63013;51.104;-115.370;2023-06-26T00:43:31;87298.60;;;21.10
74536;BMP180;63013;51.104;-115.370;2023-06-26T00:45:59;87295.80;;;21.10
74536;BMP180;63013;51.104;-115.370;2023-06-26T00:48:26;87287.40;;;21.10
74536;BMP180;63013;51.104;-115.370;2023-06-26T00:50:54;87287.80;;;21.10
74536;BMP180;63013;51.104;-115.370;2023-06-26T00:53:22;87284.20;;;21.10
74536;BMP180;63013;51.104;-115.370;2023-06-26T00:55:49;87281.60;;;21.10
74536;BMP180;63013;51.104;-115.370;2023-06-26T00:58:16;87283.00;;;21.10
74536;BMP180;63013;51.104;-115.370;2023-06-26T01:00:43;87286.20;;;21.10
74536;BMP180;63013;51.104;-115.370;2023-06-26T01:03:12;87280.00;;;21.14
74536;BMP180;63013;51.104;-115.370;2023-06-26T01:05:39;87276.80;;;21.18
74536;BMP180;63013;51.104;-115.370;2023-06-26T01:08:07;87276.80;;;21.20
74536;BMP180;63013;51.104;-115.370;2023-06-26T01:10:34;87274.80;;;21.20
74536;BMP180;63013;51.104;-115.370;2023-06-26T01:13:01;87276.60;;;21.20
74536;BMP180;63013;51.104;-115.370;2023-06-26T01:15:28;87278.60;;;21.20
74536;BMP180;63013;51.104;-115.370;2023-06-26T01:17:57;87278.00;;;21.20
74536;BMP180;63013;51.104;-115.370;2023-06-26T01:20:38;87280.20;;;21.20
74536;BMP180;63013;51.104;-115.370;2023-06-26T01:26:27;87277.80;;;21.30
74536;BMP180;63013;51.104;-115.370;2023-06-26T01:28:58;87282.40;;;21.30
74536;BMP180;63013;51.104;-115.370;2023-06-26T01:31:28;87278.60;;;21.30
74536;BMP180;63013;51.104;-115.370;2023-06-26T01:33:59;87278.80;;;21.30
74536;BMP180;63013;51.104;-115.370;2023-06-26T01:36:27;87279.80;;;21.40
74536;BMP180;63013;51.104;-115.370;2023-06-26T01:38:55;87281.40;;;21.40
74536;BMP180;63013;51.104;-115.370;2023-06-26T01:41:22;87282.20;;;21.40
74536;BMP180;63013;51.104;-115.370;2023-06-26T01:44:32;87280.60;;;21.40
74536;BMP180;63013;51.104;-115.370;2023-06-26T01:47:05;87279.80;;;21.46
74536;BMP180;63013;51.104;-115.370;2023-06-26T01:49:49;87287.20;;;21.50
74536;BMP180;63013;51.104;-115.370;2023-06-26T01:55:53;87282.60;;;21.50
74536;BMP180;63013;51.104;-115.370;2023-06-26T01:58:20;87285.20;;;21.52
74536;BMP180;63013;51.104;-115.370;2023-06-26T02:00:51;87281.80;;;21.58
74536;BMP180;63013;51.104;-115.370;2023-06-26T02:03:18;87284.60;;;21.60
74536;BMP180;63013;51.104;-115.370;2023-06-26T02:05:46;87286.60;;;21.60
74536;BMP180;63013;51.104;-115.370;2023-06-26T02:08:14;87288.60;;;21.60
74536;BMP180;63013;51.104;-115.370;2023-06-26T02:10:42;87288.60;;;21.70
74536;BMP180;63013;51.104;-115.370;2023-06-26T02:13:08;87295.00;;;21.70
74536;BMP180;63013;51.104;-115.370;2023-06-26T02:15:36;87294.20;;;21.70
74536;BMP180;63013;51.104;-115.370;2023-06-26T02:18:02;87294.00;;;21.70
74536;BMP180;63013;51.104;-115.370;2023-06-26T02:20:29;87291.80;;;21.72
74536;BMP180;63013;51.104;-115.370;2023-06-26T02:22:56;87295.20;;;21.80
74536;BMP180;63013;51.104;-115.370;2023-06-26T02:25:23;87299.40;;;21.80
74536;BMP180;63013;51.104;-115.370;2023-06-26T02:27:51;87298.00;;;21.80
74536;BMP180;63013;51.104;-115.370;2023-06-26T02:30:18;87296.40;;;21.80
74536;BMP180;63013;51.104;-115.370;2023-06-26T02:32:44;87295.00;;;21.82
74536;BMP180;63013;51.104;-115.370;2023-06-26T02:35:11;87292.20;;;21.90
74536;BMP180;63013;51.104;-115.370;2023-06-26T02:37:39;87290.40;;;21.90
74536;BMP180;63013;51.104;-115.370;2023-06-26T02:40:06;87292.20;;;21.90
74536;BMP180;63013;51.104;-115.370;2023-06-26T02:42:35;87290.80;;;21.90
74536;BMP180;63013;51.104;-115.370;2023-06-26T02:45:02;87292.00;;;21.90
74536;BMP180;63013;51.104;-115.370;2023-06-26T02:47:29;87292.60;;;21.90
74536;BMP180;63013;51.104;-115.370;2023-06-26T02:49:56;87299.20;;;21.90
74536;BMP180;63013;51.104;-115.370;2023-06-26T02:52:23;87303.20;;;21.90
74536;BMP180;63013;51.104;-115.370;2023-06-26T02:54:50;87299.00;;;21.96
74536;BMP180;63013;51.104;-115.370;2023-06-26T02:57:17;87297.20;;;22.00
74536;BMP180;63013;51.104;-115.370;2023-06-26T02:59:44;87294.60;;;21.98
74536;BMP180;63013;51.104;-115.370;2023-06-26T03:02:11;87298.40;;;21.98
74536;BMP180;63013;51.104;-115.370;2023-06-26T03:04:39;87295.80;;;22.00
74536;BMP180;63013;51.104;-115.370;2023-06-26T03:07:05;87294.40;;;22.00
74536;BMP180;63013;51.104;-115.370;2023-06-26T03:09:33;87292.80;;;22.00
74536;BMP180;63013;51.104;-115.370;2023-06-26T03:12:00;87296.60;;;22.00
74536;BMP180;63013;51.104;-115.370;2023-06-26T03:14:27;87298.20;;;22.00
74536;BMP180;63013;51.104;-115.370;2023-06-26T03:16:55;87301.20;;;21.96
74536;BMP180;63013;51.104;-115.370;2023-06-26T03:19:24;87301.40;;;21.92
74536;BMP180;63013;51.104;-115.370;2023-06-26T03:21:51;87308.40;;;21.90
74536;BMP180;63013;51.104;-115.370;2023-06-26T03:24:19;87312.20;;;21.90
74536;BMP180;63013;51.104;-115.370;2023-06-26T03:26:46;87313.60;;;21.90
74536;BMP180;63013;51.104;-115.370;2023-06-26T03:29:13;87315.40;;;21.90
74536;BMP180;63013;51.104;-115.370;2023-06-26T03:31:40;87308.80;;;21.90
74536;BMP180;63013;51.104;-115.370;2023-06-26T03:34:07;87310.80;;;21.90
74536;BMP180;63013;51.104;-115.370;2023-06-26T03:36:34;87315.60;;;21.90
74536;BMP180;63013;51.104;-115.370;2023-06-26T03:39:02;87318.00;;;21.90
74536;BMP180;63013;51.104;-115.370;2023-06-26T03:41:30;87316.60;;;21.90
74536;BMP180;63013;51.104;-115.370;2023-06-26T03:43:57;87315.40;;;21.90
74536;BMP180;63013;51.104;-115.370;2023-06-26T03:46:24;87322.40;;;21.90
74536;BMP180;63013;51.104;-115.370;2023-06-26T03:48:51;87326.80;;;21.88
74536;BMP180;63013;51.104;-115.370;2023-06-26T03:51:18;87331.00;;;21.80
74536;BMP180;63013;51.104;-115.370;2023-06-26T03:53:46;87336.60;;;21.80
74536;BMP180;63013;51.104;-115.370;2023-06-26T03:56:13;87339.80;;;21.80
74536;BMP180;63013;51.104;-115.370;2023-06-26T03:58:40;87344.60;;;21.80
74536;BMP180;63013;51.104;-115.370;2023-06-26T04:01:07;87349.00;;;21.80
74536;BMP180;63013;51.104;-115.370;2023-06-26T04:03:34;87354.60;;;21.80
74536;BMP180;63013;51.104;-115.370;2023-06-26T04:06:01;87360.80;;;21.80
74536;BMP180;63013;51.104;-115.370;2023-06-26T04:08:29;87361.20;;;21.80
74536;BMP180;63013;51.104;-115.370;2023-06-26T04:10:56;87362.20;;;21.80
74536;BMP180;63013;51.104;-115.370;2023-06-26T04:13:25;87363.80;;;21.80
74536;BMP180;63013;51.104;-115.370;2023-06-26T04:15:52;87365.60;;;21.80
74536;BMP180;63013;51.104;-115.370;2023-06-26T04:18:19;87369.00;;;21.80
74536;BMP180;63013;51.104;-115.370;2023-06-26T04:21:12;87372.60;;;21.74
74536;BMP180;63013;51.104;-115.370;2023-06-26T04:23:40;87375.00;;;21.70
74536;BMP180;63013;51.104;-115.370;2023-06-26T04:26:08;87380.40;;;21.70
74536;BMP180;63013;51.104;-115.370;2023-06-26T04:28:35;87384.80;;;21.70
74536;BMP180;63013;51.104;-115.370;2023-06-26T04:31:03;87382.00;;;21.70
74536;BMP180;63013;51.104;-115.370;2023-06-26T04:33:30;87382.40;;;21.70
74536;BMP180;63013;51.104;-115.370;2023-06-26T04:35:57;87386.80;;;21.70
74536;BMP180;63013;51.104;-115.370;2023-06-26T04:38:32;87388.40;;;21.70
74536;BMP180;63013;51.104;-115.370;2023-06-26T04:41:01;87394.40;;;21.70
74536;BMP180;63013;51.104;-115.370;2023-06-26T04:43:28;87397.60;;;21.70
74536;BMP180;63013;51.104;-115.370;2023-06-26T04:45:55;87400.80;;;21.68
74536;BMP180;63013;51.104;-115.370;2023-06-26T04:48:23;87410.20;;;21.70
74536;BMP180;63013;51.104;-115.370;2023-06-26T04:50:50;87409.40;;;21.68
74536;BMP180;63013;51.104;-115.370;2023-06-26T04:53:24;87408.20;;;21.70
74536;BMP180;63013;51.104;-115.370;2023-06-26T04:55:52;87407.00;;;21.70
74536;BMP180;63013;51.104;-115.370;2023-06-26T04:58:20;87409.20;;;21.68
74536;BMP180;63013;51.104;-115.370;2023-06-26T05:00:47;87413.80;;;21.70
74536;BMP180;63013;51.104;-115.370;2023-06-26T05:03:16;87421.00;;;21.66
74536;BMP180;63013;51.104;-115.370;2023-06-26T05:05:43;87421.40;;;21.68
74536;BMP180;63013;51.104;-115.370;2023-06-26T05:08:22;87422.80;;;21.60
74536;BMP180;63013;51.104;-115.370;2023-06-26T05:10:50;87426.40;;;21.62
74536;BMP180;63013;51.104;-115.370;2023-06-26T05:13:16;87425.40;;;21.60
74536;BMP180;63013;51.104;-115.370;2023-06-26T05:15:46;87427.40;;;21.60
74536;BMP180;63013;51.104;-115.370;2023-06-26T05:18:13;87424.60;;;21.60
74536;BMP180;63013;51.104;-115.370;2023-06-26T05:20:41;87422.60;;;21.60
74536;BMP180;63013;51.104;-115.370;2023-06-26T05:23:08;87425.60;;;21.60
74536;BMP180;63013;51.104;-115.370;2023-06-26T05:25:38;87425.60;;;21.60
74536;BMP180;63013;51.104;-115.370;2023-06-26T05:28:05;87426.00;;;21.60
74536;BMP180;63013;51.104;-115.370;2023-06-26T05:30:35;87426.00;;;21.60
74536;BMP180;63013;51.104;-115.370;2023-06-26T05:33:03;87426.00;;;21.60
74536;BMP180;63013;51.104;-115.370;2023-06-26T05:35:33;87425.60;;;21.60
74536;BMP180;63013;51.104;-115.370;2023-06-26T05:38:01;87423.20;;;21.60
74536;BMP180;63013;51.104;-115.370;2023-06-26T05:40:29;87417.80;;;21.60
74536;BMP180;63013;51.104;-115.370;2023-06-26T05:42:56;87419.40;;;21.60
74536;BMP180;63013;51.104;-115.370;2023-06-26T05:45:23;87414.20;;;21.60
74536;BMP180;63013;51.104;-115.370;2023-06-26T05:47:50;87408.40;;;21.60
74536;BMP180;63013;51.104;-115.370;2023-06-26T05:50:18;87412.80;;;21.60
74536;BMP180;63013;51.104;-115.370;2023-06-26T05:52:46;87408.80;;;21.60
74536;BMP180;63013;51.104;-115.370;2023-06-26T05:55:14;87410.00;;;21.60
74536;BMP180;63013;51.104;-115.370;2023-06-26T05:57:42;87405.00;;;21.60
74536;BMP180;63013;51.104;-115.370;2023-06-26T06:00:10;87403.40;;;21.60
74536;BMP180;63013;51.104;-115.370;2023-06-26T06:02:38;87403.40;;;21.58
74536;BMP180;63013;51.104;-115.370;2023-06-26T06:05:06;87405.60;;;21.58
74536;BMP180;63013;51.104;-115.370;2023-06-26T06:07:33;87413.00;;;21.58
74536;BMP180;63013;51.104;-115.370;2023-06-26T06:10:02;87417.20;;;21.56
74536;BMP180;63013;51.104;-115.370;2023-06-26T06:12:29;87417.40;;;21.52
74536;BMP180;63013;51.104;-115.370;2023-06-26T06:14:56;87420.60;;;21.50
74536;BMP180;63013;51.104;-115.370;2023-06-26T06:17:23;87424.00;;;21.50
74536;BMP180;63013;51.104;-115.370;2023-06-26T06:19:50;87423.60;;;21.50
74536;BMP180;63013;51.104;-115.370;2023-06-26T06:22:17;87418.60;;;21.50
74536;BMP180;63013;51.104;-115.370;2023-06-26T06:24:44;87415.20;;;21.50
74536;BMP180;63013;51.104;-115.370;2023-06-26T06:27:11;87410.80;;;21.50
74536;BMP180;63013;51.104;-115.370;2023-06-26T06:29:39;87412.40;;;21.50
74536;BMP180;63013;51.104;-115.370;2023-06-26T06:32:07;87407.00;;;21.50
74536;BMP180;63013;51.104;-115.370;2023-06-26T06:34:34;87407.20;;;21.50
74536;BMP180;63013;51.104;-115.370;2023-06-26T06:37:03;87399.20;;;21.50
74536;BMP180;63013;51.104;-115.370;2023-06-26T06:39:30;87397.60;;;21.50
74536;BMP180;63013;51.104;-115.370;2023-06-26T06:41:57;87394.40;;;21.50
74536;BMP180;63013;51.104;-115.370;2023-06-26T06:44:24;87393.80;;;21.50
74536;BMP180;63013;51.104;-115.370;2023-06-26T06:46:51;87389.00;;;21.48
74536;BMP180;63013;51.104;-115.370;2023-06-26T06:49:19;87386.60;;;21.46
74536;BMP180;63013;51.104;-115.370;2023-06-26T06:51:46;87381.80;;;21.40
74536;BMP180;63013;51.104;-115.370;2023-06-26T06:54:15;87379.00;;;21.40
74536;BMP180;63013;51.104;-115.370;2023-06-26T06:56:42;87374.20;;;21.40
74536;BMP180;63013;51.104;-115.370;2023-06-26T06:59:09;87370.60;;;21.40
74536;BMP180;63013;51.104;-115.370;2023-06-26T07:01:36;87369.40;;;21.40
74536;BMP180;63013;51.104;-115.370;2023-06-26T07:04:04;87368.80;;;21.40
74536;BMP180;63013;51.104;-115.370;2023-06-26T07:06:31;87371.80;;;21.40
74536;BMP180;63013;51.104;-115.370;2023-06-26T07:08:58;87375.60;;;21.40
74536;BMP180;63013;51.104;-115.370;2023-06-26T07:11:25;87373.60;;;21.40
74536;BMP180;63013;51.104;-115.370;2023-06-26T07:13:51;87375.80;;;21.40
74536;BMP180;63013;51.104;-115.370;2023-06-26T07:16:19;87380.00;;;21.40
74536;BMP180;63013;51.104;-115.370;2023-06-26T07:18:46;87385.20;;;21.40
74536;BMP180;63013;51.104;-115.370;2023-06-26T07:21:12;87388.20;;;21.38
74536;BMP180;63013;51.104;-115.370;2023-06-26T07:23:40;87387.60;;;21.36
74536;BMP180;63013;51.104;-115.370;2023-06-26T07:26:07;87380.00;;;21.30
74536;BMP180;63013;51.104;-115.370;2023-06-26T07:28:34;87380.60;;;21.30
74536;BMP180;63013;51.104;-115.370;2023-06-26T07:31:00;87378.20;;;21.30
74536;BMP180;63013;51.104;-115.370;2023-06-26T07:33:28;87380.00;;;21.30
74536;BMP180;63013;51.104;-115.370;2023-06-26T07:35:55;87382.00;;;21.30
74536;BMP180;63013;51.104;-115.370;2023-06-26T07:38:23;87381.80;;;21.30
74536;BMP180;63013;51.104;-115.370;2023-06-26T07:40:50;87385.20;;;21.30
74536;BMP180;63013;51.104;-115.370;2023-06-26T07:43:17;87385.40;;;21.30
74536;BMP180;63013;51.104;-115.370;2023-06-26T07:45:44;87387.00;;;21.30
74536;BMP180;63013;51.104;-115.370;2023-06-26T07:48:11;87390.00;;;21.30
74536;BMP180;63013;51.104;-115.370;2023-06-26T07:50:38;87388.80;;;21.30
74536;BMP180;63013;51.104;-115.370;2023-06-26T07:53:05;87387.80;;;21.30
74536;BMP180;63013;51.104;-115.370;2023-06-26T07:55:32;87386.80;;;21.30
74536;BMP180;63013;51.104;-115.370;2023-06-26T07:57:59;87383.20;;;21.28
74536;BMP180;63013;51.104;-115.370;2023-06-26T08:00:27;87383.40;;;21.20
74536;BMP180;63013;51.104;-115.370;2023-06-26T08:02:54;87381.20;;;21.20
74536;BMP180;63013;51.104;-115.370;2023-06-26T08:05:21;87383.00;;;21.20
74536;BMP180;63013;51.104;-115.370;2023-06-26T08:07:48;87382.60;;;21.20
74536;BMP180;63013;51.104;-115.370;2023-06-26T08:10:16;87385.40;;;21.20
74536;BMP180;63013;51.104;-115.370;2023-06-26T08:12:43;87384.20;;;21.20
74536;BMP180;63013;51.104;-115.370;2023-06-26T08:15:12;87385.60;;;21.20
74536;BMP180;63013;51.104;-115.370;2023-06-26T08:17:39;87385.60;;;21.20
74536;BMP180;63013;51.104;-115.370;2023-06-26T08:20:07;87387.80;;;21.20
74536;BMP180;63013;51.104;-115.370;2023-06-26T08:22:37;87391.00;;;21.20
74536;BMP180;63013;51.104;-115.370;2023-06-26T08:25:05;87386.80;;;21.20
74536;BMP180;63013;51.104;-115.370;2023-06-26T08:27:32;87388.00;;;21.18
74536;BMP180;63013;51.104;-115.370;2023-06-26T08:29:59;87388.20;;;21.14
74536;BMP180;63013;51.104;-115.370;2023-06-26T08:32:26;87390.60;;;21.10
74536;BMP180;63013;51.104;-115.370;2023-06-26T08:34:53;87393.00;;;21.10
74536;BMP180;63013;51.104;-115.370;2023-06-26T08:37:20;87388.40;;;21.10
74536;BMP180;63013;51.104;-115.370;2023-06-26T08:39:48;87381.40;;;21.10
74536;BMP180;63013;51.104;-115.370;2023-06-26T08:42:16;87380.80;;;21.10
74536;BMP180;63013;51.104;-115.370;2023-06-26T08:44:43;87380.00;;;21.10
74536;BMP180;63013;51.104;-115.370;2023-06-26T08:47:12;87378.60;;;21.10
74536;BMP180;63013;51.104;-115.370;2023-06-26T08:50:04;87379.00;;;21.10
74536;BMP180;63013;51.104;-115.370;2023-06-26T08:55:52;87381.00;;;21.10
74536;BMP180;63013;51.104;-115.370;2023-06-26T08:58:20;87382.40;;;21.10
74536;BMP180;63013;51.104;-115.370;2023-06-26T09:00:47;87381.40;;;21.10
74536;BMP180;63013;51.104;-115.370;2023-06-26T09:03:17;87378.40;;;21.10
74536;BMP180;63013;51.104;-115.370;2023-06-26T09:05:44;87382.80;;;21.08
74536;BMP180;63013;51.104;-115.370;2023-06-26T09:08:11;87381.80;;;21.04
74536;BMP180;63013;51.104;-115.370;2023-06-26T09:10:40;87379.80;;;21.00
74536;BMP180;63013;51.104;-115.370;2023-06-26T09:13:07;87382.80;;;21.00
74536;BMP180;63013;51.104;-115.370;2023-06-26T09:15:45;87384.40;;;21.00
74536;BMP180;63013;51.104;-115.370;2023-06-26T09:18:17;87383.00;;;21.00
74536;BMP180;63013;51.104;-115.370;2023-06-26T09:20:45;87380.00;;;21.00
74536;BMP180;63013;51.104;-115.370;2023-06-26T09:23:13;87379.60;;;21.00
74536;BMP180;63013;51.104;-115.370;2023-06-26T09:25:41;87380.00;;;21.00
74536;BMP180;63013;51.104;-115.370;2023-06-26T09:28:09;87380.60;;;20.98
74536;BMP180;63013;51.104;-115.370;2023-06-26T09:30:36;87378.80;;;20.94
74536;BMP180;63013;51.104;-115.370;2023-06-26T09:33:21;87383.00;;;20.92
74536;BMP180;63013;51.104;-115.370;2023-06-26T09:35:48;87380.40;;;20.90
74536;BMP180;63013;51.104;-115.370;2023-06-26T09:38:15;87378.00;;;20.90
74536;BMP180;63013;51.104;-115.370;2023-06-26T09:40:44;87382.80;;;20.90
74536;BMP180;63013;51.104;-115.370;2023-06-26T09:43:14;87384.20;;;20.90
74536;BMP180;63013;51.104;-115.370;2023-06-26T09:45:41;87386.80;;;20.90
74536;BMP180;63013;51.104;-115.370;2023-06-26T09:48:08;87381.60;;;20.90
74536;BMP180;63013;51.104;-115.370;2023-06-26T09:50:35;87378.80;;;20.90
74536;BMP180;63013;51.104;-115.370;2023-06-26T09:53:10;87376.60;;;20.90
74536;BMP180;63013;51.104;-115.370;2023-06-26T09:55:37;87377.60;;;20.90
74536;BMP180;63013;51.104;-115.370;2023-06-26T09:58:05;87379.80;;;20.90
74536;BMP180;63013;51.104;-115.370;2023-06-26T10:00:33;87380.00;;;20.90
74536;BMP180;63013;51.104;-115.370;2023-06-26T10:03:00;87378.60;;;20.82
74536;BMP180;63013;51.104;-115.370;2023-06-26T10:05:27;87375.40;;;20.80
74536;BMP180;63013;51.104;-115.370;2023-06-26T10:07:55;87372.80;;;20.80
74536;BMP180;63013;51.104;-115.370;2023-06-26T10:10:24;87375.40;;;20.80
74536;BMP180;63013;51.104;-115.370;2023-06-26T10:13:00;87374.00;;;20.80
74536;BMP180;63013;51.104;-115.370;2023-06-26T10:15:31;87372.40;;;20.80
74536;BMP180;63013;51.104;-115.370;2023-06-26T10:17:58;87371.80;;;20.80
74536;BMP180;63013;51.104;-115.370;2023-06-26T10:20:26;87366.40;;;20.80
74536;BMP180;63013;51.104;-115.370;2023-06-26T10:22:57;87361.00;;;20.80
74536;BMP180;63013;51.104;-115.370;2023-06-26T10:25:26;87361.40;;;20.76
74536;BMP180;63013;51.104;-115.370;2023-06-26T10:27:58;87361.20;;;20.80
74536;BMP180;63013;51.104;-115.370;2023-06-26T10:30:33;87361.20;;;20.72
74536;BMP180;63013;51.104;-115.370;2023-06-26T10:33:03;87365.40;;;20.70
74536;BMP180;63013;51.104;-115.370;2023-06-26T10:35:31;87362.40;;;20.70
74536;BMP180;63013;51.104;-115.370;2023-06-26T10:38:03;87361.00;;;20.70
74536;BMP180;63013;51.104;-115.370;2023-06-26T10:40:44;87359.80;;;20.70
74536;BMP180;63013;51.104;-115.370;2023-06-26T10:43:14;87360.20;;;20.70
74536;BMP180;63013;51.104;-115.370;2023-06-26T10:45:49;87360.40;;;20.70
74536;BMP180;63013;51.104;-115.370;2023-06-26T10:48:21;87359.80;;;20.70
74536;BMP180;63013;51.104;-115.370;2023-06-26T10:50:49;87356.00;;;20.66
74536;BMP180;63013;51.104;-115.370;2023-06-26T10:55:59;87359.20;;;20.60
74536;BMP180;63013;51.104;-115.370;2023-06-26T11:01:25;87358.00;;;20.60
74536;BMP180;63013;51.104;-115.370;2023-06-26T11:04:06;87356.80;;;20.60
74536;BMP180;63013;51.104;-115.370;2023-06-26T11:06:35;87353.80;;;20.60
74536;BMP180;63013;51.104;-115.370;2023-06-26T11:14:32;87350.60;;;20.60
74536;BMP180;63013;51.104;-115.370;2023-06-26T11:17:02;87346.60;;;20.60
74536;BMP180;63013;51.104;-115.370;2023-06-26T11:19:29;87347.40;;;20.58
74536;BMP180;63013;51.104;-115.370;2023-06-26T11:22:02;87350.40;;;20.52
74536;BMP180;63013;51.104;-115.370;2023-06-26T11:24:31;87350.60;;;20.50
74536;BMP180;63013;51.104;-115.370;2023-06-26T11:27:01;87351.80;;;20.50
74536;BMP180;63013;51.104;-115.370;2023-06-26T11:29:30;87351.40;;;20.50
74536;BMP180;63013;51.104;-115.370;2023-06-26T11:32:04;87355.60;;;20.50
74536;BMP180;63013;51.104;-115.370;2023-06-26T11:34:33;87353.60;;;20.50
74536;BMP180;63013;51.104;-115.370;2023-06-26T11:37:00;87358.20;;;20.50
74536;BMP180;63013;51.104;-115.370;2023-06-26T11:39:28;87357.40;;;20.50
74536;BMP180;63013;51.104;-115.370;2023-06-26T11:41:55;87354.40;;;20.50
74536;BMP180;63013;51.104;-115.370;2023-06-26T11:44:22;87353.00;;;20.50
74536;BMP180;63013;51.104;-115.370;2023-06-26T11:46:52;87352.00;;;20.46
74536;BMP180;63013;51.104;-115.370;2023-06-26T11:49:22;87350.40;;;20.40
74536;BMP180;63013;51.104;-115.370;2023-06-26T11:51:52;87351.00;;;20.40
74536;BMP180;63013;51.104;-115.370;2023-06-26T11:54:26;87350.80;;;20.40
74536;BMP180;63013;51.104;-115.370;2023-06-26T11:56:55;87350.20;;;20.40
74536;BMP180;63013;51.104;-115.370;2023-06-26T11:59:24;87349.20;;;20.40
74536;BMP180;63013;51.104;-115.370;2023-06-26T12:01:52;87347.20;;;20.40
74536;BMP180;63013;51.104;-115.370;2023-06-26T12:04:21;87347.40;;;20.40
74536;BMP180;63013;51.104;-115.370;2023-06-26T12:06:52;87345.80;;;20.40
74536;BMP180;63013;51.104;-115.370;2023-06-26T12:09:24;87347.20;;;20.40
74536;BMP180;63013;51.104;-115.370;2023-06-26T12:11:56;87349.60;;;20.40
74536;BMP180;63013;51.104;-115.370;2023-06-26T12:14:26;87352.20;;;20.40
74536;BMP180;63013;51.104;-115.370;2023-06-26T12:16:55;87349.80;;;20.40
74536;BMP180;63013;51.104;-115.370;2023-06-26T12:19:26;87348.20;;;20.38
74536;BMP180;63013;51.104;-115.370;2023-06-26T12:21:53;87347.00;;;20.36
74536;BMP180;63013;51.104;-115.370;2023-06-26T12:24:24;87346.40;;;20.30
74536;BMP180;63013;51.104;-115.370;2023-06-26T12:26:54;87349.80;;;20.30
74536;BMP180;63013;51.104;-115.370;2023-06-26T12:29:34;87348.00;;;20.30
74536;BMP180;63013;51.104;-115.370;2023-06-26T12:32:01;87344.40;;;20.30
74536;BMP180;63013;51.104;-115.370;2023-06-26T12:34:34;87343.60;;;20.30
74536;BMP180;63013;51.104;-115.370;2023-06-26T12:37:05;87346.00;;;20.30
74536;BMP180;63013;51.104;-115.370;2023-06-26T12:39:53;87341.00;;;20.30
74536;BMP180;63013;51.104;-115.370;2023-06-26T12:42:23;87347.40;;;20.30
74536;BMP180;63013;51.104;-115.370;2023-06-26T12:44:51;87349.40;;;20.30
74536;BMP180;63013;51.104;-115.370;2023-06-26T12:47:26;87352.20;;;20.26
74536;BMP180;63013;51.104;-115.370;2023-06-26T12:49:53;87346.40;;;20.24
74536;BMP180;63013;51.104;-115.370;2023-06-26T12:52:22;87343.80;;;20.20
74536;BMP180;63013;51.104;-115.370;2023-06-26T12:54:54;87340.80;;;20.20
74536;BMP180;63013;51.104;-115.370;2023-06-26T12:57:22;87337.40;;;20.20
74536;BMP180;63013;51.104;-115.370;2023-06-26T12:59:49;87339.40;;;20.20
74536;BMP180;63013;51.104;-115.370;2023-06-26T13:02:16;87337.00;;;20.20
74536;BMP180;63013;51.104;-115.370;2023-06-26T13:04:44;87340.40;;;20.20
74536;BMP180;63013;51.104;-115.370;2023-06-26T13:07:12;87338.80;;;20.20
74536;BMP180;63013;51.104;-115.370;2023-06-26T13:09:39;87337.60;;;20.20
74536;BMP180;63013;51.104;-115.370;2023-06-26T13:12:07;87340.80;;;20.18
74536;BMP180;63013;51.104;-115.370;2023-06-26T13:14:35;87338.40;;;20.10
74536;BMP180;63013;51.104;-115.370;2023-06-26T13:17:02;87336.60;;;20.10
74536;BMP180;63013;51.104;-115.370;2023-06-26T13:19:29;87331.20;;;20.10
74536;BMP180;63013;51.104;-115.370;2023-06-26T13:21:56;87333.80;;;20.10
74536;BMP180;63013;51.104;-115.370;2023-06-26T13:24:23;87333.80;;;20.10
74536;BMP180;63013;51.104;-115.370;2023-06-26T13:26:51;87334.00;;;20.10
74536;BMP180;63013;51.104;-115.370;2023-06-26T13:29:18;87330.80;;;20.10
74536;BMP180;63013;51.104;-115.370;2023-06-26T13:31:45;87328.40;;;20.10
74536;BMP180;63013;51.104;-115.370;2023-06-26T13:34:24;87325.20;;;20.10
74536;BMP180;63013;51.104;-115.370;2023-06-26T13:36:54;87322.00;;;20.10
74536;BMP180;63013;51.104;-115.370;2023-06-26T13:39:21;87324.20;;;20.10
74536;BMP180;63013;51.104;-115.370;2023-06-26T13:41:48;87323.80;;;20.10
74536;BMP180;63013;51.104;-115.370;2023-06-26T13:44:15;87321.60;;;20.08
74536;BMP180;63013;51.104;-115.370;2023-06-26T13:46:42;87321.60;;;20.08
74536;BMP180;63013;51.104;-115.370;2023-06-26T13:49:10;87323.80;;;20.04
74536;BMP180;63013;51.104;-115.370;2023-06-26T13:51:37;87322.80;;;20.02
74536;BMP180;63013;51.104;-115.370;2023-06-26T13:54:04;87319.80;;;20.00
74536;BMP180;63013;51.104;-115.370;2023-06-26T13:56:31;87317.00;;;20.00
74536;BMP180;63013;51.104;-115.370;2023-06-26T13:58:59;87319.00;;;20.00
74536;BMP180;63013;51.104;-115.370;2023-06-26T14:01:27;87322.60;;;20.00